Time;durP1;ratioP1;P1;durP2;ratioP2;P2;SDS_P1;SDS_P2;PMS_P1;PMS_P2;Temp;Humidity;BMP_temperature;BMP_pressure;BME280_temperature;BME280_humidity;BME280_pressure;Samples;Min_cycle;Max_cycle;Signal;HPM_P1;HPM_P2
2023/07/17 00:00:32;;;;;;;0.55;0.55;;;;;;;23.35;100.00;99820.47;6128076;23;20019;-92
2023/07/17 00:02:57;;;;;;;1.20;0.93;;;;;;;23.42;100.00;99824.75;6128983;23;20017;-93
2023/07/17 00:05:23;;;;;;;0.98;0.65;;;;;;;23.28;100.00;99792.00;6179868;23;20016;-93
2023/07/17 00:07:48;;;;;;;0.70;0.70;;;;;;;23.31;100.00;99816.41;6127718;23;20013;-92
2023/07/17 00:10:14;;;;;;;0.45;0.45;;;;;;;23.39;100.00;99828.66;6153589;23;20020;-91
2023/07/17 00:12:40;;;;;;;1.08;1.02;;;;;;;23.27;100.00;99804.59;6129056;23;20068;-90
2023/07/17 00:15:07;;;;;;;0.75;0.40;;;;;;;23.36;100.00;99824.06;6103712;23;20013;-91
2023/07/17 00:17:33;;;;;;;1.50;1.30;;;;;;;23.18;100.00;99792.34;6128747;23;20021;-91
2023/07/17 00:19:59;;;;;;;1.90;1.10;;;;;;;23.34;100.00;99816.09;6128180;23;20009;-90
2023/07/17 00:22:25;;;;;;;0.52;0.52;;;;;;;23.25;100.00;99791.75;6103499;23;20118;-91
2023/07/17 00:24:52;;;;;;;0.98;0.88;;;;;;;23.37;100.00;99819.94;6128660;23;20020;-91
2023/07/17 00:27:17;;;;;;;1.20;1.10;;;;;;;23.32;100.00;99807.38;6104185;23;20726;-91
2023/07/17 00:29:44;;;;;;;1.05;0.90;;;;;;;23.30;100.00;99815.63;6104063;23;20001;-91
2023/07/17 00:32:13;;;;;;;1.20;1.10;;;;;;;23.26;100.00;99809.50;6129187;23;20059;-91
2023/07/17 00:34:39;;;;;;;0.93;0.93;;;;;;;23.25;100.00;99797.41;6128951;23;20689;-91
2023/07/17 00:37:06;;;;;;;0.90;0.90;;;;;;;23.35;100.00;99816.88;6104561;23;20597;-91
2023/07/17 00:39:32;;;;;;;1.30;1.20;;;;;;;23.30;100.00;99809.19;6128870;23;20005;-91
2023/07/17 00:41:57;;;;;;;1.77;1.00;;;;;;;23.12;100.00;99776.72;6154283;23;20013;-91
2023/07/17 00:44:23;;;;;;;0.98;0.68;;;;;;;23.28;100.00;99811.81;6158526;23;20017;-92
2023/07/17 00:46:49;;;;;;;2.30;1.70;;;;;;;23.11;100.00;99781.63;6164415;23;20019;-91
2023/07/17 00:49:17;;;;;;;0.77;0.70;;;;;;;23.24;100.00;99801.56;6107030;23;20017;-91
2023/07/17 00:51:43;;;;;;;0.52;0.52;;;;;;;23.06;100.00;99768.28;6127458;23;20175;-91
2023/07/17 00:54:10;;;;;;;1.67;1.30;;;;;;;23.28;100.00;99803.31;6127407;23;20016;-91
2023/07/17 00:56:36;;;;;;;0.80;0.80;;;;;;;23.27;100.00;99807.44;6128516;23;20036;-91
2023/07/17 00:59:01;;;;;;;0.95;0.90;;;;;;;23.16;100.00;99800.59;6103483;23;20060;-91
2023/07/17 01:01:27;;;;;;;0.90;0.77;;;;;;;22.91;100.00;99767.94;6152667;23;20009;-91
2023/07/17 01:03:54;;;;;;;1.65;1.35;;;;;;;22.98;100.00;99794.88;6127843;23;20455;-91
2023/07/17 01:06:20;;;;;;;0.90;0.82;;;;;;;23.06;100.00;99805.06;6129009;23;20029;-90
2023/07/17 01:08:45;;;;;;;1.02;1.02;;;;;;;22.99;100.00;99797.16;6151950;23;20462;-90
2023/07/17 01:11:11;;;;;;;1.00;0.73;;;;;;;22.76;100.00;99787.38;6127480;23;20082;-90
2023/07/17 01:13:49;;;;;;;0.47;0.45;;;;;;;22.84;100.00;99808.13;6127507;23;20091;-90
2023/07/17 01:16:15;;;;;;;1.65;1.55;;;;;;;22.67;100.00;99793.31;6128110;23;20426;-90
2023/07/17 01:18:41;;;;;;;1.30;0.98;;;;;;;22.74;100.00;99813.31;6103353;23;20017;-90
2023/07/17 01:21:10;;;;;;;0.50;0.50;;;;;;;22.71;100.00;99811.56;6103608;23;20482;-90
2023/07/17 01:23:36;;;;;;;0.98;0.85;;;;;;;22.63;100.00;99815.44;6152043;23;20017;-90
2023/07/17 01:26:16;;;;;;;1.73;1.30;;;;;;;22.53;100.00;99817.06;6128315;23;20008;-89
2023/07/17 01:28:42;;;;;;;0.63;0.63;;;;;;;22.46;100.00;99804.25;6128027;23;20458;-90
2023/07/17 01:31:08;;;;;;;1.27;1.17;;;;;;;22.50;100.00;99824.53;6126527;23;20064;-90
2023/07/17 01:33:34;;;;;;;1.40;1.13;;;;;;;22.47;100.00;99805.03;6103423;23;20039;-90
2023/07/17 01:36:01;;;;;;;1.90;0.75;;;;;;;22.41;100.00;99818.41;6127827;23;20017;-90
2023/07/17 01:38:26;;;;;;;1.00;0.95;;;;;;;22.12;100.00;99772.63;6127078;23;20009;-89
2023/07/17 01:40:52;;;;;;;1.30;1.05;;;;;;;22.35;100.00;99797.94;6124608;23;20019;-90
2023/07/17 01:43:18;;;;;;;0.95;0.73;;;;;;;22.18;100.00;99770.53;6103831;23;20017;-90
2023/07/17 01:45:44;;;;;;;4.28;2.08;;;;;;;22.40;100.00;99811.25;6127549;23;20417;-90
2023/07/17 01:48:10;;;;;;;1.63;1.35;;;;;;;22.23;100.00;99783.88;6129207;23;20511;-90
2023/07/17 01:50:36;;;;;;;0.65;0.65;;;;;;;22.29;100.00;99798.72;6127573;23;20096;-89
2023/07/17 01:53:03;;;;;;;0.73;0.70;;;;;;;22.39;100.00;99818.19;6127091;23;20021;-90
2023/07/17 01:55:29;;;;;;;1.15;1.05;;;;;;;22.23;100.00;99800.81;6128197;23;20084;-90
2023/07/17 01:57:58;;;;;;;0.77;0.77;;;;;;;22.36;100.00;99822.06;6152857;23;20028;-90
2023/07/17 02:00:23;;;;;;;1.60;1.10;;;;;;;22.38;100.00;99816.66;6127639;23;20009;-90
2023/07/17 02:02:49;;;;;;;1.10;0.73;;;;;;;22.33;100.00;99815.38;6128600;23;20020;-89
2023/07/17 02:05:15;;;;;;;2.10;1.13;;;;;;;22.28;100.00;99816.22;6103024;23;20141;-92
2023/07/17 02:07:41;;;;;;;2.00;1.40;;;;;;;22.13;100.00;99793.94;6127687;23;20017;-90
2023/07/17 02:10:07;;;;;;;0.68;0.68;;;;;;;22.24;100.00;99819.28;6102817;23;20451;-90
2023/07/17 02:12:33;;;;;;;1.38;1.27;;;;;;;21.94;100.00;99761.97;6129194;23;20013;-89
2023/07/17 02:14:59;;;;;;;0.60;0.60;;;;;;;22.17;100.00;99819.84;6153001;23;20487;-90
2023/07/17 02:17:25;;;;;;;0.90;0.90;;;;;;;22.22;100.00;99821.88;6104586;23;20106;-90
2023/07/17 02:19:50;;;;;;;0.85;0.70;;;;;;;22.15;100.00;99822.44;6130495;23;20009;-90
2023/07/17 02:22:16;;;;;;;1.08;0.68;;;;;;;22.14;100.00;99808.84;6129320;23;20017;-90
2023/07/17 02:24:41;;;;;;;0.73;0.73;;;;;;;22.08;100.00;99811.69;6154096;23;20005;-89
2023/07/17 02:27:07;;;;;;;0.60;0.38;;;;;;;22.08;100.00;99806.03;6130199;23;20052;-90
2023/07/17 02:29:32;;;;;;;1.73;1.08;;;;;;;22.13;100.00;99821.41;6129981;23;20075;-90
2023/07/17 02:31:58;;;;;;;1.27;1.17;;;;;;;22.07;100.00;99818.66;6106140;23;20027;-89
2023/07/17 02:34:24;;;;;;;3.33;1.60;;;;;;;22.06;100.00;99811.44;6129885;23;20447;-90
2023/07/17 02:36:49;;;;;;;1.08;0.95;;;;;;;22.12;100.00;99823.47;6104222;23;20351;-90
2023/07/17 02:39:15;;;;;;;3.47;0.90;;;;;;;22.06;100.00;99819.94;6153532;23;20017;-91
2023/07/17 02:41:40;;;;;;;1.73;1.42;;;;;;;21.89;100.00;99788.13;6105458;23;20021;-89
2023/07/17 02:44:07;;;;;;;0.50;0.50;;;;;;;22.14;100.00;99818.09;6104007;23;20021;-91
2023/07/17 02:46:33;;;;;;;0.77;0.75;;;;;;;22.03;100.00;99809.69;6154003;23;20066;-90
2023/07/17 02:48:59;;;;;;;2.55;1.60;;;;;;;22.09;100.00;99806.81;6103872;23;20017;-89
2023/07/17 02:51:24;;;;;;;1.33;0.98;;;;;;;22.16;100.00;99818.31;6179278;23;20024;-90
2023/07/17 02:53:50;;;;;;;1.13;0.68;;;;;;;22.03;100.00;99795.56;6179402;23;20025;-90
2023/07/17 02:56:16;;;;;;;0.90;0.90;;;;;;;22.09;100.00;99804.75;6180086;23;20581;-90
2023/07/17 02:58:48;;;;;;;0.95;0.82;;;;;;;22.02;100.00;99794.00;6153551;23;20123;-90
2023/07/17 03:01:14;;;;;;;1.27;1.10;;;;;;;22.14;100.00;99808.84;6131462;23;20491;-89
2023/07/17 03:03:40;;;;;;;1.70;1.42;;;;;;;22.10;100.00;99820.41;6104632;23;20051;-91
2023/07/17 03:06:05;;;;;;;0.38;0.38;;;;;;;21.88;100.00;99809.19;6103692;23;20475;-90
2023/07/17 03:08:31;;;;;;;0.75;0.75;;;;;;;21.73;100.00;99805.94;6128714;23;20028;-89
2023/07/17 03:10:57;;;;;;;2.10;1.58;;;;;;;21.81;100.00;99818.22;6128926;23;20013;-90
2023/07/17 03:13:22;;;;;;;3.67;1.88;;;;;;;21.84;100.00;99820.75;6129744;23;20008;-91
2023/07/17 03:15:48;;;;;;;1.58;0.77;;;;;;;21.87;100.00;99807.69;6128417;23;20735;-90
2023/07/17 03:18:14;;;;;;;0.50;0.50;;;;;;;21.73;100.00;99794.63;6129333;23;20037;-90
2023/07/17 03:20:43;;;;;;;1.20;1.05;;;;;;;21.76;100.00;99802.06;6105470;23;20052;-90
2023/07/17 03:23:09;;;;;;;0.45;0.45;;;;;;;21.82;100.00;99816.94;6153708;23;20099;-90
2023/07/17 03:25:35;;;;;;;0.88;0.60;;;;;;;21.64;100.00;99794.91;6128755;23;20013;-90
2023/07/17 03:28:01;;;;;;;0.75;0.75;;;;;;;21.83;100.00;99819.25;6104361;23;20534;-90
2023/07/17 03:30:27;;;;;;;0.82;0.77;;;;;;;21.78;100.00;99813.63;6128526;23;20529;-90
2023/07/17 03:32:52;;;;;;;1.02;0.93;;;;;;;21.75;100.00;99800.53;6129142;23;20055;-90
2023/07/17 03:35:19;;;;;;;0.90;0.75;;;;;;;21.73;100.00;99797.47;6129757;23;20021;-90
2023/07/17 03:37:44;;;;;;;1.20;1.10;;;;;;;21.62;100.00;99780.56;6103590;23;20036;-90
2023/07/17 03:40:10;;;;;;;2.25;0.60;;;;;;;21.87;100.00;99821.78;6103983;23;20013;-92
2023/07/17 03:42:36;;;;;;;1.30;1.20;;;;;;;21.94;100.00;99829.75;6106033;23;20013;-92
2023/07/17 03:45:04;;;;;;;2.53;0.98;;;;;;;21.67;100.00;99776.97;6115701;23;20013;-91
2023/07/17 03:47:32;;;;;;;1.38;1.27;;;;;;;21.73;100.00;99767.19;6133087;23;20005;-91
2023/07/17 03:49:58;;;;;;;1.02;0.93;;;;;;;22.02;100.00;99827.13;6108124;23;20043;-92
2023/07/17 03:52:24;;;;;;;2.67;1.23;;;;;;;22.05;100.00;99832.50;6105403;23;20427;-92
2023/07/17 03:54:50;;;;;;;0.73;0.73;;;;;;;21.92;100.00;99804.06;6105650;23;20040;-91
2023/07/17 03:57:16;;;;;;;0.73;0.70;;;;;;;22.02;100.00;99830.72;6130454;23;20008;-92
2023/07/17 03:59:53;;;;;;;0.85;0.85;;;;;;;21.95;100.00;99831.28;6128920;23;20016;-91
2023/07/17 04:02:22;;;;;;;1.45;1.05;;;;;;;21.97;100.00;99823.03;6107439;23;20009;-92
2023/07/17 04:04:51;;;;;;;4.22;1.38;;;;;;;22.02;100.00;99839.19;6106854;23;20138;-91
2023/07/17 04:07:17;;;;;;;0.60;0.60;;;;;;;21.84;100.00;99806.63;6152737;23;20084;-91
2023/07/17 04:09:43;;;;;;;1.00;0.93;;;;;;;21.96;100.00;99829.22;6130479;23;20016;-92
2023/07/17 04:12:09;;;;;;;0.95;0.82;;;;;;;21.85;100.00;99804.59;6105704;23;20013;-92
2023/07/17 04:14:35;;;;;;;1.55;1.23;;;;;;;22.05;100.00;99818.38;6128643;23;20071;-91
2023/07/17 04:17:03;;;;;;;1.60;1.05;;;;;;;21.96;100.00;99806.63;6104969;23;20005;-92
2023/07/17 04:19:30;;;;;;;1.15;1.13;;;;;;;22.16;100.00;99823.97;6104668;23;20009;-92
2023/07/17 04:21:56;;;;;;;1.30;1.20;;;;;;;22.14;100.00;99814.50;6103830;23;20332;-92
2023/07/17 04:24:23;;;;;;;1.15;0.75;;;;;;;22.10;100.00;99806.28;6127053;23;20001;-91
2023/07/17 04:26:50;;;;;;;3.00;1.95;;;;;;;22.04;100.00;99787.84;6105978;23;20068;-92
2023/07/17 04:29:16;;;;;;;0.77;0.77;;;;;;;22.30;100.00;99814.38;6105668;23;20013;-92
2023/07/17 04:31:42;;;;;;;1.15;1.02;;;;;;;22.23;100.00;99800.81;6153516;23;20339;-92
2023/07/17 04:34:09;;;;;;;0.63;0.63;;;;;;;22.52;100.00;99827.63;6129784;23;20108;-92
2023/07/17 04:36:35;;;;;;;4.03;2.17;;;;;;;22.61;100.00;99840.63;6129248;23;20215;-91
2023/07/17 04:39:04;;;;;;;1.27;1.08;;;;;;;22.71;100.00;99841.88;6126613;23;20708;-91
2023/07/17 04:41:30;;;;;;;0.70;0.70;;;;;;;22.80;100.00;99835.13;6153634;23;20016;-92
2023/07/17 04:43:57;;;;;;;1.27;1.17;;;;;;;22.77;100.00;99828.47;6104202;23;20036;-92
2023/07/17 04:46:24;;;;;;;2.40;1.67;;;;;;;22.65;100.00;99798.72;6129840;23;20438;-92
2023/07/17 04:48:50;;;;;;;2.22;1.17;;;;;;;23.02;100.00;99840.59;6128312;23;20021;-91
2023/07/17 04:51:16;;;;;;;1.50;1.40;;;;;;;22.83;100.00;99811.47;6104209;23;20032;-91
2023/07/17 04:53:42;;;;;;;0.82;0.82;;;;;;;22.99;100.00;99831.13;6128443;23;20021;-92
2023/07/17 04:56:07;;;;;;;1.88;1.08;;;;;;;23.09;100.00;99823.81;6156485;23;20155;-91
2023/07/17 04:58:33;;;;;;;1.27;1.17;;;;;;;23.02;100.00;99817.97;6157868;23;20103;-91
2023/07/17 05:01:01;;;;;;;1.27;1.20;;;;;;;23.18;100.00;99834.00;6136642;23;20023;-90
2023/07/17 05:03:28;;;;;;;1.17;0.70;;;;;;;23.17;100.00;99807.78;6132794;23;20021;-90
2023/07/17 05:05:54;;;;;;;1.52;1.42;;;;;;;23.31;100.00;99822.06;6153474;23;20025;-93
2023/07/17 05:08:22;;;;;;;1.20;0.88;;;;;;;23.67;100.00;99851.81;6129142;23;20020;-92
2023/07/17 05:10:58;;;;;;;1.48;1.30;;;;;;;23.49;100.00;99813.66;6128749;23;20028;-92
2023/07/17 05:13:29;;;;;;;1.50;1.40;;;;;;;23.68;100.00;99825.78;6130681;23;20036;-94
2023/07/17 05:15:56;;;;;;;1.38;1.08;;;;;;;24.00;100.00;99865.56;6105562;23;20494;-92
2023/07/17 05:18:22;;;;;;;1.10;1.00;;;;;;;24.04;100.00;99854.69;6127218;23;20032;-92
2023/07/17 05:20:49;;;;;;;1.52;1.30;;;;;;;24.09;100.00;99834.03;6128151;23;20024;-91
2023/07/17 05:23:15;;;;;;;0.65;0.65;;;;;;;24.28;100.00;99844.63;6126271;23;20095;-91
2023/07/17 05:25:42;;;;;;;1.60;1.50;;;;;;;24.54;100.00;99868.22;6127681;23;20127;-92
2023/07/17 05:28:08;;;;;;;0.70;0.70;;;;;;;24.43;100.00;99840.00;6101465;23;20021;-92
2023/07/17 05:30:35;;;;;;;1.70;1.40;;;;;;;24.59;100.00;99853.19;6104437;23;20020;-92
2023/07/17 05:33:01;;;;;;;1.58;1.45;;;;;;;24.71;100.00;99845.25;6102126;23;20009;-91
2023/07/17 05:35:26;;;;;;;1.08;0.98;;;;;;;24.86;100.00;99851.25;6101091;23;20019;-92
2023/07/17 05:37:53;;;;;;;1.42;1.25;;;;;;;25.13;100.00;99876.84;6103098;23;20067;-93
2023/07/17 05:40:19;;;;;;;1.38;1.27;;;;;;;25.24;100.00;99836.91;6127595;23;20020;-93
2023/07/17 05:42:45;;;;;;;1.50;1.40;;;;;;;25.49;100.00;99836.19;6127866;23;20108;-92
2023/07/17 05:45:12;;;;;;;2.58;1.90;;;;;;;25.66;100.00;99833.06;6103618;23;20025;-93
2023/07/17 05:47:38;;;;;;;3.55;1.48;;;;;;;26.08;100.00;99868.09;6126877;23;20021;-92
2023/07/17 05:50:04;;;;;;;1.60;1.25;;;;;;;26.28;100.00;99875.22;6151525;23;20013;-92
2023/07/17 05:52:30;;;;;;;1.20;1.10;;;;;;;26.24;100.00;99843.50;6127097;23;20217;-91
2023/07/17 05:54:56;;;;;;;0.77;0.77;;;;;;;26.61;100.00;99862.31;6179642;23;20013;-93
2023/07/17 05:57:21;;;;;;;1.52;1.42;;;;;;;26.79;100.00;99867.81;6129036;23;20137;-92
2023/07/17 05:59:47;;;;;;;1.80;1.67;;;;;;;26.75;100.00;99856.00;6104790;23;20379;-93
2023/07/17 06:02:13;;;;;;;1.77;1.40;;;;;;;26.98;100.00;99861.16;6128321;23;20009;-93
2023/07/17 06:04:38;;;;;;;2.42;1.98;;;;;;;27.09;100.00;99872.28;6152478;23;20059;-93
2023/07/17 06:07:04;;;;;;;1.95;1.40;;;;;;;27.22;100.00;99875.03;6150837;23;20510;-93
2023/07/17 06:09:30;;;;;;;1.75;1.35;;;;;;;27.34;100.00;99859.97;6153071;23;20021;-93
2023/07/17 06:11:56;;;;;;;1.15;1.05;;;;;;;27.60;100.00;99875.38;6128990;23;20017;-92
2023/07/17 06:14:21;;;;;;;3.70;1.48;;;;;;;27.73;100.00;99858.94;6153533;23;20350;-93
2023/07/17 06:16:47;;;;;;;2.15;1.95;;;;;;;27.88;100.00;99854.63;6153577;23;20023;-92
2023/07/17 06:19:13;;;;;;;0.77;0.70;;;;;;;28.05;100.00;99846.38;6155105;23;20009;-93
2023/07/17 06:21:38;;;;;;;1.35;1.25;;;;;;;28.33;100.00;99854.88;6129776;23;20415;-93
2023/07/17 06:24:07;;;;;;;2.58;1.83;;;;;;;28.44;100.00;99851.69;6129428;23;20009;-93
2023/07/17 06:26:34;;;;;;;2.33;1.92;;;;;;;28.63;100.00;99849.25;6182972;23;20432;-93
2023/07/17 06:29:00;;;;;;;1.10;1.00;;;;;;;28.92;100.00;99874.81;6154943;23;20005;-93
2023/07/17 06:31:26;;;;;;;0.90;0.80;;;;;;;28.85;100.00;99842.09;6154028;23;20079;-93
2023/07/17 06:33:51;;;;;;;2.38;1.20;;;;;;;29.00;100.00;99842.09;6106153;23;20001;-92
2023/07/17 06:36:17;;;;;;;1.20;1.10;;;;;;;29.43;100.00;99866.88;6154078;23;20087;-93
2023/07/17 06:38:42;;;;;;;1.95;1.23;;;;;;;29.55;100.00;99867.25;6153737;23;20005;-92
2023/07/17 06:41:08;;;;;;;1.98;1.60;;;;;;;29.60;100.00;99867.03;6105654;23;20024;-93
2023/07/17 06:43:33;;;;;;;1.30;1.20;;;;;;;29.50;100.00;99840.41;6155017;23;20383;-92
2023/07/17 06:45:59;;;;;;;3.08;2.00;;;;;;;29.88;100.00;99860.34;6131668;23;20021;-93
2023/07/17 06:48:24;;;;;;;1.85;1.63;;;;;;;30.14;100.00;99870.56;6139640;23;20013;-93
2023/07/17 06:50:50;;;;;;;2.72;2.08;;;;;;;30.30;100.00;99860.56;6129906;23;20028;-92
2023/07/17 06:53:16;;;;;;;1.08;0.98;;;;;;;30.68;96.89;99874.72;6106303;23;20011;-92
2023/07/17 06:55:41;;;;;;;5.20;1.92;;;;;;;30.33;91.22;99847.94;6108140;23;20017;-93
2023/07/17 06:58:07;;;;;;;0.95;0.90;;;;;;;30.55;94.29;99875.75;6130112;23;20485;-92
2023/07/17 07:00:33;;;;;;;2.20;1.65;;;;;;;30.72;93.64;99866.47;6103930;23;20017;-92
2023/07/17 07:02:58;;;;;;;1.08;1.00;;;;;;;30.96;93.70;99862.13;6105190;23;20009;-93
2023/07/17 07:05:24;;;;;;;2.60;1.75;;;;;;;30.95;88.55;99846.28;6129515;23;20017;-91
2023/07/17 07:07:49;;;;;;;1.98;1.88;;;;;;;31.16;89.90;99857.41;6153293;23;20047;-92
2023/07/17 07:10:15;;;;;;;1.20;1.08;;;;;;;31.14;89.20;99835.06;6154321;23;20076;-93
2023/07/17 07:12:40;;;;;;;2.17;1.77;;;;;;;31.11;88.36;99853.44;6104286;23;20522;-93
2023/07/17 07:15:07;;;;;;;1.75;1.58;;;;;;;31.48;89.24;99869.53;6152899;23;20021;-92
2023/07/17 07:17:32;;;;;;;2.53;1.85;;;;;;;31.59;88.58;99847.47;6154185;23;20013;-92
2023/07/17 07:19:58;;;;;;;3.15;1.05;;;;;;;31.62;87.41;99829.13;6129599;23;20351;-92
2023/07/17 07:22:23;;;;;;;1.73;1.63;;;;;;;31.91;84.92;99847.31;6128834;23;20008;-92
2023/07/17 07:24:49;;;;;;;1.00;1.00;;;;;;;32.29;85.75;99873.47;6129385;23;20017;-93
2023/07/17 07:27:15;;;;;;;1.95;1.60;;;;;;;32.22;82.09;99860.00;6130054;23;20128;-92
2023/07/17 07:29:41;;;;;;;2.03;1.75;;;;;;;32.48;80.59;99860.59;6129103;23;20044;-93
2023/07/17 07:32:06;;;;;;;0.80;0.80;;;;;;;32.75;79.78;99870.03;6128859;23;20016;-91
2023/07/17 07:34:32;;;;;;;1.23;1.13;;;;;;;32.72;77.49;99868.31;6129319;23;20005;-92
2023/07/17 07:36:57;;;;;;;1.90;1.35;;;;;;;32.78;76.22;99863.06;6127871;23;20598;-93
2023/07/17 07:39:23;;;;;;;1.33;1.23;;;;;;;33.05;74.93;99852.31;6105209;23;20060;-90
2023/07/17 07:41:49;;;;;;;1.33;1.02;;;;;;;33.10;75.69;99862.78;6127591;23;20017;-91
2023/07/17 07:44:14;;;;;;;1.95;1.13;;;;;;;33.24;73.35;99848.78;6130204;23;20013;-92
2023/07/17 07:46:40;;;;;;;1.33;1.23;;;;;;;33.33;72.37;99835.78;6128373;23;20020;-92
2023/07/17 07:49:06;;;;;;;2.03;1.88;;;;;;;32.76;72.17;99834.19;6103360;23;20360;-91
2023/07/17 07:51:31;;;;;;;1.85;1.40;;;;;;;33.10;75.54;99874.25;6128886;23;20051;-92
2023/07/17 07:53:57;;;;;;;0.75;0.75;;;;;;;33.49;74.50;99880.91;6104539;23;20451;-91
2023/07/17 07:56:22;;;;;;;1.92;1.75;;;;;;;33.67;70.83;99861.44;6129778;23;20020;-91
2023/07/17 07:58:48;;;;;;;2.67;1.75;;;;;;;33.73;68.04;99865.53;6128096;23;20013;-91
2023/07/17 08:01:14;;;;;;;1.67;1.42;;;;;;;34.10;67.89;99874.03;6130347;23;20013;-92
2023/07/17 08:03:40;;;;;;;1.80;1.70;;;;;;;33.92;65.84;99870.56;6152753;23;20363;-91
2023/07/17 08:06:06;;;;;;;1.45;1.35;;;;;;;33.92;66.64;99859.06;6103655;23;20016;-92
2023/07/17 08:08:32;;;;;;;1.08;0.90;;;;;;;34.17;66.47;99853.75;6128208;23;20021;-92
2023/07/17 08:10:58;;;;;;;1.67;1.58;;;;;;;34.34;64.60;99852.81;6104360;23;20009;-92
2023/07/17 08:13:23;;;;;;;2.22;1.23;;;;;;;34.45;64.20;99874.50;6129733;23;20015;-92
2023/07/17 08:15:49;;;;;;;1.48;1.38;;;;;;;34.50;64.49;99864.75;6128538;23;20129;-91
2023/07/17 08:18:16;;;;;;;2.30;1.98;;;;;;;34.46;61.65;99859.47;6128938;23;20095;-91
2023/07/17 08:20:42;;;;;;;1.40;1.30;;;;;;;34.41;64.12;99866.31;6179499;23;20056;-91
2023/07/17 08:23:08;;;;;;;1.48;1.33;;;;;;;34.20;62.24;99854.69;6127212;23;20016;-92
2023/07/17 08:25:33;;;;;;;1.85;1.67;;;;;;;34.17;66.41;99873.91;6104877;23;20019;-92
2023/07/17 08:27:59;;;;;;;1.60;1.50;;;;;;;34.50;64.15;99882.03;6129323;23;20013;-92
2023/07/17 08:30:24;;;;;;;1.70;1.60;;;;;;;34.45;61.67;99878.13;6128311;23;20005;-91
2023/07/17 08:32:50;;;;;;;1.23;1.17;;;;;;;34.69;59.63;99878.41;6127628;23;20483;-92
2023/07/17 08:35:16;;;;;;;1.85;1.67;;;;;;;34.87;59.48;99886.22;6104037;23;20414;-92
2023/07/17 08:37:41;;;;;;;1.40;1.30;;;;;;;34.74;57.99;99880.22;6151065;23;20499;-92
2023/07/17 08:40:09;;;;;;;1.10;1.00;;;;;;;35.06;54.71;99885.41;6153409;23;20017;-92
2023/07/17 08:42:34;;;;;;;1.65;1.35;;;;;;;34.86;52.75;99867.41;6152942;23;20009;-93
2023/07/17 08:45:00;;;;;;;1.65;1.27;;;;;;;35.01;53.39;99881.50;6126508;23;20028;-91
2023/07/17 08:47:26;;;;;;;1.48;1.15;;;;;;;34.91;50.44;99880.00;6126617;23;20013;-92
2023/07/17 08:49:52;;;;;;;2.40;1.45;;;;;;;34.33;54.19;99868.59;6101774;23;20451;-91
2023/07/17 08:52:18;;;;;;;2.30;2.08;;;;;;;34.42;52.22;99869.94;6125616;23;20155;-92
2023/07/17 08:54:44;;;;;;;1.60;1.50;;;;;;;34.94;50.50;99899.69;6151385;23;20468;-93
2023/07/17 08:57:10;;;;;;;1.08;0.98;;;;;;;34.70;50.33;99894.34;6102884;23;20009;-92
2023/07/17 08:59:36;;;;;;;1.42;1.15;;;;;;;34.93;50.89;99900.31;6125913;23;20020;-92
2023/07/17 09:02:03;;;;;;;1.10;0.95;;;;;;;35.36;49.23;99887.56;6129115;23;20009;-93
2023/07/17 09:04:30;;;;;;;1.33;1.23;;;;;;;35.57;47.79;99895.50;6128677;23;20043;-92
2023/07/17 09:06:55;;;;;;;1.65;1.45;;;;;;;35.71;48.15;99902.25;6152276;23;20020;-92
2023/07/17 09:09:21;;;;;;;1.38;1.27;;;;;;;35.83;47.15;99888.66;6103928;23;20028;-92
2023/07/17 09:11:46;;;;;;;1.83;1.73;;;;;;;35.86;47.78;99906.88;6153912;23;20027;-92
2023/07/17 09:14:12;;;;;;;2.30;1.63;;;;;;;35.95;46.14;99903.91;6128846;23;20435;-92
2023/07/17 09:16:38;;;;;;;1.30;1.15;;;;;;;36.06;45.59;99901.72;6103365;23;20019;-93
2023/07/17 09:19:04;;;;;;;2.08;1.42;;;;;;;36.13;45.61;99892.09;6153218;23;20402;-92
2023/07/17 09:21:30;;;;;;;1.02;0.98;;;;;;;36.05;44.91;99860.53;6128820;23;20001;-92
2023/07/17 09:23:56;;;;;;;1.98;1.58;;;;;;;36.11;45.41;99884.09;6106261;23;20032;-92
2023/07/17 09:26:24;;;;;;;2.00;1.80;;;;;;;36.36;43.12;99883.53;6130175;23;20028;-92
2023/07/17 09:28:57;;;;;;;1.42;1.33;;;;;;;36.65;43.68;99897.72;6137226;23;20083;-91
2023/07/17 09:31:31;;;;;;;2.08;1.50;;;;;;;36.83;42.67;99885.19;6141167;23;20536;-92
2023/07/17 09:33:58;;;;;;;1.30;1.20;;;;;;;36.86;43.34;99903.41;6134286;23;20597;-92
2023/07/17 09:36:24;;;;;;;4.05;1.33;;;;;;;36.86;42.82;99907.06;6106761;23;20009;-92
2023/07/17 09:38:57;;;;;;;1.50;1.35;;;;;;;37.17;40.65;99888.75;6130392;23;20020;-93
2023/07/17 09:41:27;;;;;;;2.47;1.85;;;;;;;37.44;41.26;99899.84;6129377;23;20017;-92
2023/07/17 09:44:00;;;;;;;0.95;0.93;;;;;;;37.35;40.91;99904.34;6128190;23;20032;-91
2023/07/17 09:46:27;;;;;;;1.33;1.17;;;;;;;37.12;43.43;99896.44;6128406;23;20028;-92
2023/07/17 09:48:53;;;;;;;2.25;1.88;;;;;;;37.14;43.23;99895.81;6127650;23;20009;-92
2023/07/17 09:51:20;;;;;;;1.42;1.33;;;;;;;36.52;42.73;99893.25;6152547;23;20009;-92
2023/07/17 09:53:46;;;;;;;4.03;1.60;;;;;;;37.02;42.28;99892.88;6127330;23;20020;-92
2023/07/17 09:56:14;;;;;;;1.25;1.15;;;;;;;37.14;41.15;99878.44;6152765;23;20013;-92
2023/07/17 09:58:44;;;;;;;1.17;1.05;;;;;;;37.25;40.87;99889.25;6127752;23;20068;-92
2023/07/17 10:01:12;;;;;;;1.13;1.10;;;;;;;36.91;42.47;99888.59;6103822;23;20019;-91
2023/07/17 10:03:38;;;;;;;4.38;1.70;;;;;;;37.21;41.74;99891.91;6098713;23;20014;-92
2023/07/17 10:06:04;;;;;;;1.17;1.08;;;;;;;37.49;41.32;99884.97;6097968;23;20048;-92
2023/07/17 10:08:30;;;;;;;2.55;2.35;;;;;;;37.67;40.83;99883.22;6098465;23;20017;-93
2023/07/17 10:10:56;;;;;;;1.10;1.00;;;;;;;37.27;42.43;99875.69;6124146;23;20016;-92
2023/07/17 10:13:21;;;;;;;1.27;1.17;;;;;;;37.43;42.65;99875.94;6123036;23;20011;-93
2023/07/17 10:15:47;;;;;;;1.27;1.17;;;;;;;37.72;42.02;99879.19;6148511;23;20056;-92
2023/07/17 10:18:13;;;;;;;1.10;1.08;;;;;;;37.15;42.53;99891.53;6124655;23;20010;-92
2023/07/17 10:20:39;;;;;;;2.13;1.45;;;;;;;36.81;43.88;99864.81;6098372;23;20045;-92
2023/07/17 10:23:31;;;;;;;1.08;1.02;;;;;;;37.05;44.21;99876.44;6145469;23;20024;-93
2023/07/17 10:26:11;;;;;;;2.15;1.45;;;;;;;37.33;43.27;99890.50;6115772;23;20053;-91
2023/07/17 10:28:37;;;;;;;2.30;2.05;;;;;;;37.30;42.87;99876.56;6123825;23;20021;-93
2023/07/17 10:31:32;;;;;;;1.33;1.23;;;;;;;37.85;41.31;99879.91;6147303;23;20096;-91
2023/07/17 10:34:02;;;;;;;1.45;1.08;;;;;;;37.77;41.66;99877.28;6091415;23;20025;-91
2023/07/17 10:36:43;;;;;;;1.20;1.10;;;;;;;37.92;42.12;99890.44;6098598;23;20014;-92
2023/07/17 10:39:15;;;;;;;1.77;1.67;;;;;;;38.02;40.85;99885.28;6099809;23;20017;-92
2023/07/17 10:41:40;;;;;;;;;;;;;;;38.04;40.33;99885.41;6101546;23;20071;-91
2023/07/17 10:44:08;;;;;;;1.15;1.05;;;;;;;37.76;39.87;99884.47;6150335;23;19916;-92
2023/07/17 10:46:37;;;;;;;1.60;1.50;;;;;;;37.56;39.90;99865.88;6149375;23;20029;-94
2023/07/17 10:49:08;;;;;;;1.00;1.00;;;;;;;37.14;40.58;99885.00;6149730;23;20080;-93
2023/07/17 10:51:35;;;;;;;2.03;1.75;;;;;;;37.07;40.62;99882.34;6148409;23;20018;-93
2023/07/17 10:54:01;;;;;;;1.55;1.45;;;;;;;36.48;41.65;99884.31;6124430;23;20021;-93
2023/07/17 10:56:29;;;;;;;1.77;1.40;;;;;;;36.50;42.76;99866.38;6125025;23;20013;-94
2023/07/17 10:58:54;;;;;;;2.72;1.73;;;;;;;36.59;41.43;99871.31;6125218;23;20021;-93
2023/07/17 11:01:20;;;;;;;1.08;1.05;;;;;;;36.44;41.79;99878.28;6124891;23;20335;-93
2023/07/17 11:03:47;;;;;;;1.40;1.27;;;;;;;36.46;42.52;99841.63;6124341;23;20021;-93
2023/07/17 11:06:17;;;;;;;3.88;1.58;;;;;;;35.99;41.84;99845.72;6124711;23;20020;-93
2023/07/17 11:08:50;;;;;;;1.65;1.50;;;;;;;36.44;43.72;99866.72;6123547;23;20024;-92
2023/07/17 11:11:15;;;;;;;;;;;;;;;36.63;41.99;99855.00;6149953;23;20017;-92
2023/07/17 11:13:48;;;;;;;1.27;1.17;;;;;;;36.62;42.73;99836.16;6124321;23;19923;-92
2023/07/17 11:16:14;;;;;;;1.30;1.20;;;;;;;37.02;42.91;99826.38;6124488;23;20459;-92
2023/07/17 11:18:50;;;;;;;1.60;1.50;;;;;;;37.61;40.68;99845.22;6148021;23;20037;-93
2023/07/17 11:21:17;;;;;;;1.40;1.30;;;;;;;37.57;39.30;99844.97;6149135;23;20407;-93
2023/07/17 11:23:53;;;;;;;3.53;1.15;;;;;;;37.73;39.76;99840.16;6098801;23;20036;-93
2023/07/17 11:26:34;;;;;;;1.42;1.20;;;;;;;37.94;38.34;99841.34;6149260;23;20013;-92